sensor_id;sensor_type;location;lat;lon;timestamp;P1;durP1;ratioP1;P2;durP2;ratioP2
19599;SDS011;9947;57.722;12.012;2022-07-21T00:01:46;13.23;;;8.68;;
19599;SDS011;9947;57.722;12.012;2022-07-21T00:04:13;12.45;;;8.63;;
19599;SDS011;9947;57.722;12.012;2022-07-21T00:06:40;12.82;;;8.85;;
19599;SDS011;9947;57.722;12.012;2022-07-21T00:09:07;10.55;;;8.52;;
19599;SDS011;9947;57.722;12.012;2022-07-21T00:11:34;15.00;;;8.43;;
19599;SDS011;9947;57.722;12.012;2022-07-21T00:14:01;12.05;;;8.43;;
19599;SDS011;9947;57.722;12.012;2022-07-21T00:16:29;13.65;;;8.57;;
19599;SDS011;9947;57.722;12.012;2022-07-21T00:18:56;13.00;;;8.60;;
19599;SDS011;9947;57.722;12.012;2022-07-21T00:21:24;14.95;;;8.90;;
19599;SDS011;9947;57.722;12.012;2022-07-21T00:23:51;12.73;;;8.07;;
19599;SDS011;9947;57.722;12.012;2022-07-21T00:26:18;14.77;;;8.27;;
19599;SDS011;9947;57.722;12.012;2022-07-21T00:28:46;10.27;;;8.05;;
19599;SDS011;9947;57.722;12.012;2022-07-21T00:31:13;11.05;;;8.27;;
19599;SDS011;9947;57.722;12.012;2022-07-21T00:33:41;12.15;;;8.05;;
19599;SDS011;9947;57.722;12.012;2022-07-21T00:36:08;13.90;;;8.68;;
19599;SDS011;9947;57.722;12.012;2022-07-21T00:38:35;12.80;;;8.73;;
19599;SDS011;9947;57.722;12.012;2022-07-21T00:41:02;15.25;;;9.07;;
19599;SDS011;9947;57.722;12.012;2022-07-21T00:43:29;12.90;;;9.40;;
19599;SDS011;9947;57.722;12.012;2022-07-21T00:45:56;12.38;;;8.35;;
19599;SDS011;9947;57.722;12.012;2022-07-21T00:48:23;13.48;;;8.68;;
19599;SDS011;9947;57.722;12.012;2022-07-21T00:50:51;12.65;;;8.00;;
19599;SDS011;9947;57.722;12.012;2022-07-21T00:53:18;12.15;;;8.15;;
19599;SDS011;9947;57.722;12.012;2022-07-21T00:55:45;13.38;;;8.50;;
19599;SDS011;9947;57.722;12.012;2022-07-21T00:58:12;11.60;;;8.10;;
19599;SDS011;9947;57.722;12.012;2022-07-21T01:00:39;11.60;;;8.65;;
19599;SDS011;9947;57.722;12.012;2022-07-21T01:03:07;12.32;;;8.23;;
19599;SDS011;9947;57.722;12.012;2022-07-21T01:05:33;11.90;;;8.85;;
19599;SDS011;9947;57.722;12.012;2022-07-21T01:08:02;14.70;;;8.52;;
19599;SDS011;9947;57.722;12.012;2022-07-21T01:10:30;11.80;;;8.43;;
19599;SDS011;9947;57.722;12.012;2022-07-21T01:12:57;10.88;;;8.10;;
19599;SDS011;9947;57.722;12.012;2022-07-21T01:15:25;12.05;;;8.88;;
19599;SDS011;9947;57.722;12.012;2022-07-21T01:17:52;11.00;;;8.43;;
19599;SDS011;9947;57.722;12.012;2022-07-21T01:20:20;10.70;;;8.20;;
19599;SDS011;9947;57.722;12.012;2022-07-21T01:22:50;13.02;;;8.88;;
19599;SDS011;9947;57.722;12.012;2022-07-21T01:25:19;13.85;;;8.88;;
19599;SDS011;9947;57.722;12.012;2022-07-21T01:27:46;14.55;;;8.93;;
19599;SDS011;9947;57.722;12.012;2022-07-21T01:30:13;12.45;;;8.35;;
19599;SDS011;9947;57.722;12.012;2022-07-21T01:32:41;15.30;;;9.00;;
19599;SDS011;9947;57.722;12.012;2022-07-21T01:35:10;12.38;;;8.60;;
19599;SDS011;9947;57.722;12.012;2022-07-21T01:37:39;12.75;;;8.70;;
19599;SDS011;9947;57.722;12.012;2022-07-21T01:40:11;11.20;;;8.70;;
19599;SDS011;9947;57.722;12.012;2022-07-21T01:42:56;16.75;;;9.23;;
19599;SDS011;9947;57.722;12.012;2022-07-21T01:45:23;13.23;;;8.23;;
19599;SDS011;9947;57.722;12.012;2022-07-21T01:47:50;12.23;;;8.70;;
19599;SDS011;9947;57.722;12.012;2022-07-21T01:50:17;12.63;;;8.30;;
19599;SDS011;9947;57.722;12.012;2022-07-21T01:52:46;10.48;;;8.35;;
19599;SDS011;9947;57.722;12.012;2022-07-21T01:55:14;13.90;;;8.82;;
19599;SDS011;9947;57.722;12.012;2022-07-21T01:57:41;12.27;;;8.77;;
19599;SDS011;9947;57.722;12.012;2022-07-21T02:00:08;11.15;;;8.77;;
19599;SDS011;9947;57.722;12.012;2022-07-21T02:02:36;12.70;;;8.93;;
19599;SDS011;9947;57.722;12.012;2022-07-21T02:05:03;16.17;;;9.15;;
19599;SDS011;9947;57.722;12.012;2022-07-21T02:07:30;12.88;;;8.73;;
19599;SDS011;9947;57.722;12.012;2022-07-21T02:09:57;14.13;;;9.30;;
19599;SDS011;9947;57.722;12.012;2022-07-21T02:12:25;13.18;;;9.05;;
19599;SDS011;9947;57.722;12.012;2022-07-21T02:14:52;13.73;;;9.18;;
19599;SDS011;9947;57.722;12.012;2022-07-21T02:17:19;14.52;;;9.25;;
19599;SDS011;9947;57.722;12.012;2022-07-21T02:19:46;12.38;;;9.27;;
19599;SDS011;9947;57.722;12.012;2022-07-21T02:22:13;12.15;;;8.77;;
19599;SDS011;9947;57.722;12.012;2022-07-21T02:24:39;13.20;;;9.02;;
19599;SDS011;9947;57.722;12.012;2022-07-21T02:27:06;12.73;;;8.63;;
19599;SDS011;9947;57.722;12.012;2022-07-21T02:29:35;12.23;;;8.85;;
19599;SDS011;9947;57.722;12.012;2022-07-21T02:32:01;13.65;;;9.15;;
19599;SDS011;9947;57.722;12.012;2022-07-21T02:34:29;12.13;;;8.50;;
19599;SDS011;9947;57.722;12.012;2022-07-21T02:36:57;12.55;;;8.95;;
19599;SDS011;9947;57.722;12.012;2022-07-21T02:39:23;11.40;;;8.38;;
19599;SDS011;9947;57.722;12.012;2022-07-21T02:41:51;12.93;;;9.80;;
19599;SDS011;9947;57.722;12.012;2022-07-21T02:44:18;14.52;;;8.77;;
19599;SDS011;9947;57.722;12.012;2022-07-21T02:46:46;16.65;;;9.90;;
19599;SDS011;9947;57.722;12.012;2022-07-21T02:49:13;12.13;;;8.80;;
19599;SDS011;9947;57.722;12.012;2022-07-21T02:51:39;13.23;;;8.57;;
19599;SDS011;9947;57.722;12.012;2022-07-21T02:54:06;13.85;;;9.20;;
19599;SDS011;9947;57.722;12.012;2022-07-21T02:56:33;15.10;;;9.35;;
19599;SDS011;9947;57.722;12.012;2022-07-21T02:59:00;20.67;;;9.70;;
19599;SDS011;9947;57.722;12.012;2022-07-21T03:01:28;12.07;;;8.82;;
19599;SDS011;9947;57.722;12.012;2022-07-21T03:03:56;14.70;;;9.32;;
19599;SDS011;9947;57.722;12.012;2022-07-21T03:06:23;14.82;;;9.25;;
19599;SDS011;9947;57.722;12.012;2022-07-21T03:08:50;11.70;;;8.90;;
19599;SDS011;9947;57.722;12.012;2022-07-21T03:11:17;13.43;;;9.13;;
19599;SDS011;9947;57.722;12.012;2022-07-21T03:13:44;11.93;;;9.15;;
19599;SDS011;9947;57.722;12.012;2022-07-21T03:16:10;12.05;;;9.18;;
19599;SDS011;9947;57.722;12.012;2022-07-21T03:18:38;13.48;;;9.57;;
19599;SDS011;9947;57.722;12.012;2022-07-21T03:21:10;12.20;;;9.10;;
19599;SDS011;9947;57.722;12.012;2022-07-21T03:23:37;12.30;;;9.07;;
19599;SDS011;9947;57.722;12.012;2022-07-21T03:26:04;12.82;;;8.77;;
19599;SDS011;9947;57.722;12.012;2022-07-21T03:28:31;14.82;;;9.00;;
19599;SDS011;9947;57.722;12.012;2022-07-21T03:30:58;15.23;;;9.27;;
19599;SDS011;9947;57.722;12.012;2022-07-21T03:33:25;13.77;;;9.20;;
19599;SDS011;9947;57.722;12.012;2022-07-21T03:35:52;12.20;;;9.02;;
19599;SDS011;9947;57.722;12.012;2022-07-21T03:38:20;17.58;;;11.43;;
19599;SDS011;9947;57.722;12.012;2022-07-21T03:40:47;17.60;;;12.15;;
19599;SDS011;9947;57.722;12.012;2022-07-21T03:43:13;15.20;;;11.38;;
19599;SDS011;9947;57.722;12.012;2022-07-21T03:45:40;25.80;;;10.18;;
19599;SDS011;9947;57.722;12.012;2022-07-21T03:48:07;11.80;;;9.00;;
19599;SDS011;9947;57.722;12.012;2022-07-21T03:50:35;13.60;;;8.93;;
19599;SDS011;9947;57.722;12.012;2022-07-21T03:53:03;13.82;;;10.02;;
19599;SDS011;9947;57.722;12.012;2022-07-21T03:55:32;11.98;;;9.18;;
19599;SDS011;9947;57.722;12.012;2022-07-21T03:58:00;14.23;;;9.55;;
19599;SDS011;9947;57.722;12.012;2022-07-21T04:00:29;14.40;;;9.05;;
19599;SDS011;9947;57.722;12.012;2022-07-21T04:02:58;12.18;;;8.60;;
19599;SDS011;9947;57.722;12.012;2022-07-21T04:05:26;13.75;;;9.25;;
19599;SDS011;9947;57.722;12.012;2022-07-21T04:07:54;13.95;;;9.52;;
19599;SDS011;9947;57.722;12.012;2022-07-21T04:10:22;15.85;;;9.38;;
19599;SDS011;9947;57.722;12.012;2022-07-21T04:12:53;12.98;;;9.13;;
19599;SDS011;9947;57.722;12.012;2022-07-21T04:15:21;13.77;;;9.25;;
19599;SDS011;9947;57.722;12.012;2022-07-21T04:17:48;12.68;;;9.18;;
19599;SDS011;9947;57.722;12.012;2022-07-21T04:20:15;14.65;;;9.00;;
19599;SDS011;9947;57.722;12.012;2022-07-21T04:22:42;15.98;;;9.07;;
19599;SDS011;9947;57.722;12.012;2022-07-21T04:25:10;12.45;;;8.95;;
19599;SDS011;9947;57.722;12.012;2022-07-21T04:27:38;12.32;;;8.65;;
19599;SDS011;9947;57.722;12.012;2022-07-21T04:30:07;11.15;;;9.05;;
19599;SDS011;9947;57.722;12.012;2022-07-21T04:32:36;15.07;;;9.00;;
19599;SDS011;9947;57.722;12.012;2022-07-21T04:35:04;13.27;;;9.32;;
19599;SDS011;9947;57.722;12.012;2022-07-21T04:37:33;15.32;;;9.60;;
19599;SDS011;9947;57.722;12.012;2022-07-21T04:40:00;14.55;;;9.55;;
19599;SDS011;9947;57.722;12.012;2022-07-21T04:42:29;13.63;;;9.30;;
19599;SDS011;9947;57.722;12.012;2022-07-21T04:44:56;14.23;;;9.30;;
19599;SDS011;9947;57.722;12.012;2022-07-21T04:47:25;12.07;;;8.45;;
19599;SDS011;9947;57.722;12.012;2022-07-21T04:49:51;12.50;;;9.10;;
19599;SDS011;9947;57.722;12.012;2022-07-21T04:52:18;12.32;;;8.40;;
19599;SDS011;9947;57.722;12.012;2022-07-21T04:54:46;13.02;;;8.70;;
19599;SDS011;9947;57.722;12.012;2022-07-21T04:57:12;11.30;;;8.70;;
19599;SDS011;9947;57.722;12.012;2022-07-21T04:59:41;9.52;;;7.97;;
19599;SDS011;9947;57.722;12.012;2022-07-21T05:02:08;13.55;;;8.95;;
19599;SDS011;9947;57.722;12.012;2022-07-21T05:04:36;10.20;;;8.48;;
19599;SDS011;9947;57.722;12.012;2022-07-21T05:07:03;9.68;;;7.97;;
19599;SDS011;9947;57.722;12.012;2022-07-21T05:09:30;10.50;;;8.30;;
19599;SDS011;9947;57.722;12.012;2022-07-21T05:11:56;10.27;;;7.82;;
19599;SDS011;9947;57.722;12.012;2022-07-21T05:14:23;10.88;;;8.38;;
19599;SDS011;9947;57.722;12.012;2022-07-21T05:16:51;14.25;;;8.05;;
19599;SDS011;9947;57.722;12.012;2022-07-21T05:19:17;12.25;;;8.48;;
19599;SDS011;9947;57.722;12.012;2022-07-21T05:21:46;12.13;;;7.97;;
19599;SDS011;9947;57.722;12.012;2022-07-21T05:24:12;10.32;;;8.48;;
19599;SDS011;9947;57.722;12.012;2022-07-21T05:26:39;13.80;;;8.32;;
19599;SDS011;9947;57.722;12.012;2022-07-21T05:29:06;11.65;;;8.60;;
19599;SDS011;9947;57.722;12.012;2022-07-21T05:31:33;9.75;;;8.00;;
19599;SDS011;9947;57.722;12.012;2022-07-21T05:34:00;9.57;;;7.13;;
19599;SDS011;9947;57.722;12.012;2022-07-21T05:36:27;10.18;;;8.20;;
19599;SDS011;9947;57.722;12.012;2022-07-21T05:38:56;9.70;;;7.78;;
19599;SDS011;9947;57.722;12.012;2022-07-21T05:41:23;9.15;;;7.43;;
19599;SDS011;9947;57.722;12.012;2022-07-21T05:43:50;10.50;;;7.97;;
19599;SDS011;9947;57.722;12.012;2022-07-21T05:46:17;11.95;;;8.50;;
19599;SDS011;9947;57.722;12.012;2022-07-21T05:48:44;11.93;;;7.70;;
19599;SDS011;9947;57.722;12.012;2022-07-21T05:51:11;11.85;;;8.98;;
19599;SDS011;9947;57.722;12.012;2022-07-21T05:53:38;10.70;;;8.13;;
19599;SDS011;9947;57.722;12.012;2022-07-21T05:56:06;10.20;;;7.85;;
19599;SDS011;9947;57.722;12.012;2022-07-21T05:58:33;10.82;;;8.05;;
19599;SDS011;9947;57.722;12.012;2022-07-21T06:01:00;9.18;;;8.18;;
19599;SDS011;9947;57.722;12.012;2022-07-21T06:03:38;10.43;;;8.40;;
19599;SDS011;9947;57.722;12.012;2022-07-21T06:06:06;9.48;;;8.27;;
19599;SDS011;9947;57.722;12.012;2022-07-21T06:08:33;9.23;;;8.15;;
19599;SDS011;9947;57.722;12.012;2022-07-21T06:11:00;10.18;;;8.80;;
19599;SDS011;9947;57.722;12.012;2022-07-21T06:13:32;13.48;;;7.80;;
19599;SDS011;9947;57.722;12.012;2022-07-21T06:15:59;11.25;;;8.48;;
19599;SDS011;9947;57.722;12.012;2022-07-21T06:18:26;12.43;;;8.38;;
19599;SDS011;9947;57.722;12.012;2022-07-21T06:20:56;11.25;;;7.85;;
19599;SDS011;9947;57.722;12.012;2022-07-21T06:23:23;11.05;;;8.40;;
19599;SDS011;9947;57.722;12.012;2022-07-21T06:25:50;12.88;;;8.65;;
19599;SDS011;9947;57.722;12.012;2022-07-21T06:28:17;11.73;;;8.38;;
19599;SDS011;9947;57.722;12.012;2022-07-21T06:30:46;12.38;;;8.10;;
19599;SDS011;9947;57.722;12.012;2022-07-21T06:33:13;12.05;;;8.85;;
19599;SDS011;9947;57.722;12.012;2022-07-21T06:35:40;13.75;;;8.35;;
19599;SDS011;9947;57.722;12.012;2022-07-21T06:38:08;11.07;;;8.68;;
19599;SDS011;9947;57.722;12.012;2022-07-21T06:40:35;11.98;;;8.05;;
19599;SDS011;9947;57.722;12.012;2022-07-21T06:43:02;12.55;;;8.85;;
19599;SDS011;9947;57.722;12.012;2022-07-21T06:45:33;15.95;;;8.85;;
19599;SDS011;9947;57.722;12.012;2022-07-21T06:48:02;15.63;;;9.23;;
19599;SDS011;9947;57.722;12.012;2022-07-21T06:50:30;11.82;;;8.93;;
19599;SDS011;9947;57.722;12.012;2022-07-21T06:53:00;13.15;;;8.95;;
19599;SDS011;9947;57.722;12.012;2022-07-21T06:55:29;11.07;;;8.48;;
19599;SDS011;9947;57.722;12.012;2022-07-21T06:57:55;12.52;;;8.55;;
19599;SDS011;9947;57.722;12.012;2022-07-21T07:00:22;11.93;;;8.43;;
19599;SDS011;9947;57.722;12.012;2022-07-21T07:02:49;13.38;;;9.23;;
19599;SDS011;9947;57.722;12.012;2022-07-21T07:05:17;12.68;;;8.93;;
19599;SDS011;9947;57.722;12.012;2022-07-21T07:07:44;12.38;;;8.70;;
19599;SDS011;9947;57.722;12.012;2022-07-21T07:10:13;11.63;;;8.98;;
19599;SDS011;9947;57.722;12.012;2022-07-21T07:12:40;14.73;;;8.63;;
19599;SDS011;9947;57.722;12.012;2022-07-21T07:15:08;14.52;;;9.63;;
19599;SDS011;9947;57.722;12.012;2022-07-21T07:17:35;15.23;;;9.30;;
19599;SDS011;9947;57.722;12.012;2022-07-21T07:20:02;11.30;;;8.52;;
19599;SDS011;9947;57.722;12.012;2022-07-21T07:22:32;18.60;;;10.02;;
19599;SDS011;9947;57.722;12.012;2022-07-21T07:24:59;12.95;;;8.93;;
19599;SDS011;9947;57.722;12.012;2022-07-21T07:27:26;13.93;;;9.55;;
19599;SDS011;9947;57.722;12.012;2022-07-21T07:29:53;14.23;;;9.65;;
19599;SDS011;9947;57.722;12.012;2022-07-21T07:32:19;15.82;;;10.05;;
19599;SDS011;9947;57.722;12.012;2022-07-21T07:34:46;19.92;;;9.45;;
19599;SDS011;9947;57.722;12.012;2022-07-21T07:37:13;14.52;;;9.38;;
19599;SDS011;9947;57.722;12.012;2022-07-21T07:39:41;13.27;;;9.82;;
19599;SDS011;9947;57.722;12.012;2022-07-21T07:42:08;13.32;;;8.95;;
19599;SDS011;9947;57.722;12.012;2022-07-21T07:44:35;11.73;;;8.90;;
19599;SDS011;9947;57.722;12.012;2022-07-21T07:47:02;11.50;;;9.20;;
19599;SDS011;9947;57.722;12.012;2022-07-21T07:49:29;14.13;;;9.45;;
19599;SDS011;9947;57.722;12.012;2022-07-21T07:51:59;18.10;;;9.65;;
19599;SDS011;9947;57.722;12.012;2022-07-21T07:54:27;11.50;;;9.20;;
19599;SDS011;9947;57.722;12.012;2022-07-21T07:56:56;15.07;;;9.43;;
19599;SDS011;9947;57.722;12.012;2022-07-21T07:59:23;13.73;;;9.20;;
19599;SDS011;9947;57.722;12.012;2022-07-21T08:01:49;13.75;;;9.55;;
19599;SDS011;9947;57.722;12.012;2022-07-21T08:04:16;14.07;;;9.02;;
19599;SDS011;9947;57.722;12.012;2022-07-21T08:06:43;16.90;;;9.90;;
19599;SDS011;9947;57.722;12.012;2022-07-21T08:09:10;13.50;;;9.55;;
19599;SDS011;9947;57.722;12.012;2022-07-21T08:11:37;16.35;;;9.75;;
19599;SDS011;9947;57.722;12.012;2022-07-21T08:14:05;13.25;;;9.63;;
19599;SDS011;9947;57.722;12.012;2022-07-21T08:16:33;13.38;;;9.48;;
19599;SDS011;9947;57.722;12.012;2022-07-21T08:19:01;11.73;;;9.60;;
19599;SDS011;9947;57.722;12.012;2022-07-21T08:21:29;13.25;;;9.75;;
19599;SDS011;9947;57.722;12.012;2022-07-21T08:23:58;14.73;;;9.77;;
19599;SDS011;9947;57.722;12.012;2022-07-21T08:26:25;18.17;;;9.38;;
19599;SDS011;9947;57.722;12.012;2022-07-21T08:28:52;14.63;;;9.38;;
19599;SDS011;9947;57.722;12.012;2022-07-21T08:31:21;18.08;;;9.32;;
19599;SDS011;9947;57.722;12.012;2022-07-21T08:33:49;13.20;;;9.70;;
19599;SDS011;9947;57.722;12.012;2022-07-21T08:36:17;14.60;;;9.15;;
19599;SDS011;9947;57.722;12.012;2022-07-21T08:38:44;13.25;;;9.63;;
19599;SDS011;9947;57.722;12.012;2022-07-21T08:41:11;12.18;;;9.55;;
19599;SDS011;9947;57.722;12.012;2022-07-21T08:43:38;13.27;;;9.18;;
19599;SDS011;9947;57.722;12.012;2022-07-21T08:46:05;17.08;;;8.82;;
19599;SDS011;9947;57.722;12.012;2022-07-21T08:48:34;16.23;;;10.00;;
19599;SDS011;9947;57.722;12.012;2022-07-21T08:51:02;14.63;;;8.70;;
19599;SDS011;9947;57.722;12.012;2022-07-21T08:53:29;10.27;;;8.38;;
19599;SDS011;9947;57.722;12.012;2022-07-21T08:55:56;11.27;;;8.45;;
19599;SDS011;9947;57.722;12.012;2022-07-21T08:58:23;12.02;;;8.90;;
19599;SDS011;9947;57.722;12.012;2022-07-21T09:00:50;14.35;;;8.85;;
19599;SDS011;9947;57.722;12.012;2022-07-21T09:03:18;12.05;;;7.93;;
19599;SDS011;9947;57.722;12.012;2022-07-21T09:06:01;10.65;;;8.35;;
19599;SDS011;9947;57.722;12.012;2022-07-21T09:08:32;12.90;;;8.57;;
19599;SDS011;9947;57.722;12.012;2022-07-21T09:11:07;14.73;;;8.30;;
19599;SDS011;9947;57.722;12.012;2022-07-21T09:13:35;10.63;;;8.43;;
19599;SDS011;9947;57.722;12.012;2022-07-21T09:16:02;13.07;;;8.27;;
19599;SDS011;9947;57.722;12.012;2022-07-21T09:18:29;11.77;;;8.40;;
19599;SDS011;9947;57.722;12.012;2022-07-21T09:20:56;11.93;;;7.85;;
19599;SDS011;9947;57.722;12.012;2022-07-21T09:23:25;11.25;;;7.97;;
19599;SDS011;9947;57.722;12.012;2022-07-21T09:25:53;14.25;;;7.85;;
19599;SDS011;9947;57.722;12.012;2022-07-21T09:28:21;9.93;;;7.93;;
19599;SDS011;9947;57.722;12.012;2022-07-21T09:30:51;11.68;;;8.32;;
19599;SDS011;9947;57.722;12.012;2022-07-21T09:33:27;13.52;;;8.50;;
19599;SDS011;9947;57.722;12.012;2022-07-21T09:36:00;17.38;;;8.15;;
19599;SDS011;9947;57.722;12.012;2022-07-21T09:38:32;13.57;;;8.77;;
19599;SDS011;9947;57.722;12.012;2022-07-21T09:41:04;11.93;;;8.07;;
19599;SDS011;9947;57.722;12.012;2022-07-21T09:43:35;12.25;;;8.02;;
19599;SDS011;9947;57.722;12.012;2022-07-21T09:46:08;15.63;;;8.93;;
19599;SDS011;9947;57.722;12.012;2022-07-21T09:48:43;28.65;;;9.57;;
19599;SDS011;9947;57.722;12.012;2022-07-21T09:51:18;14.25;;;7.85;;
19599;SDS011;9947;57.722;12.012;2022-07-21T09:53:51;19.50;;;8.35;;
19599;SDS011;9947;57.722;12.012;2022-07-21T09:56:20;12.02;;;8.45;;
19599;SDS011;9947;57.722;12.012;2022-07-21T09:58:48;12.05;;;9.15;;
19599;SDS011;9947;57.722;12.012;2022-07-21T10:01:16;18.73;;;9.02;;
19599;SDS011;9947;57.722;12.012;2022-07-21T10:03:43;14.52;;;8.82;;
19599;SDS011;9947;57.722;12.012;2022-07-21T10:06:11;15.13;;;9.07;;
19599;SDS011;9947;57.722;12.012;2022-07-21T10:08:40;12.85;;;8.98;;
19599;SDS011;9947;57.722;12.012;2022-07-21T10:11:10;13.85;;;9.07;;
19599;SDS011;9947;57.722;12.012;2022-07-21T10:13:37;13.48;;;9.68;;
19599;SDS011;9947;57.722;12.012;2022-07-21T10:16:05;12.05;;;8.93;;
19599;SDS011;9947;57.722;12.012;2022-07-21T10:18:34;15.77;;;9.73;;
19599;SDS011;9947;57.722;12.012;2022-07-21T10:21:04;13.95;;;10.13;;
19599;SDS011;9947;57.722;12.012;2022-07-21T10:23:50;12.63;;;10.15;;
19599;SDS011;9947;57.722;12.012;2022-07-21T10:26:21;13.27;;;9.55;;
19599;SDS011;9947;57.722;12.012;2022-07-21T10:28:48;15.60;;;9.90;;
19599;SDS011;9947;57.722;12.012;2022-07-21T10:31:16;15.90;;;10.30;;
19599;SDS011;9947;57.722;12.012;2022-07-21T10:33:52;16.27;;;9.38;;
19599;SDS011;9947;57.722;12.012;2022-07-21T10:36:43;12.73;;;9.75;;
19599;SDS011;9947;57.722;12.012;2022-07-21T10:39:24;15.85;;;9.75;;
19599;SDS011;9947;57.722;12.012;2022-07-21T10:41:54;12.90;;;9.45;;
19599;SDS011;9947;57.722;12.012;2022-07-21T10:47:13;11.30;;;9.05;;
19599;SDS011;9947;57.722;12.012;2022-07-21T10:49:47;17.83;;;8.88;;
19599;SDS011;9947;57.722;12.012;2022-07-21T10:55:25;10.68;;;9.10;;
19599;SDS011;9947;57.722;12.012;2022-07-21T10:58:11;12.98;;;8.82;;
19599;SDS011;9947;57.722;12.012;2022-07-21T11:00:43;17.75;;;9.07;;
19599;SDS011;9947;57.722;12.012;2022-07-21T11:03:23;13.23;;;9.43;;
19599;SDS011;9947;57.722;12.012;2022-07-21T11:08:42;15.02;;;9.48;;
19599;SDS011;9947;57.722;12.012;2022-07-21T11:11:12;16.08;;;9.70;;
19599;SDS011;9947;57.722;12.012;2022-07-21T11:14:00;13.25;;;9.23;;
19599;SDS011;9947;57.722;12.012;2022-07-21T11:19:27;13.90;;;9.07;;
19599;SDS011;9947;57.722;12.012;2022-07-21T11:22:05;11.63;;;9.35;;
19599;SDS011;9947;57.722;12.012;2022-07-21T11:24:36;15.75;;;9.75;;
19599;SDS011;9947;57.722;12.012;2022-07-21T11:27:05;12.50;;;9.43;;
19599;SDS011;9947;57.722;12.012;2022-07-21T11:29:38;12.80;;;9.70;;
19599;SDS011;9947;57.722;12.012;2022-07-21T11:32:06;12.15;;;9.77;;
19599;SDS011;9947;57.722;12.012;2022-07-21T11:34:38;12.30;;;9.98;;
19599;SDS011;9947;57.722;12.012;2022-07-21T11:37:08;13.50;;;9.38;;
19599;SDS011;9947;57.722;12.012;2022-07-21T11:39:37;11.70;;;9.52;;
19599;SDS011;9947;57.722;12.012;2022-07-21T11:42:05;15.00;;;9.32;;
19599;SDS011;9947;57.722;12.012;2022-07-21T11:44:35;12.90;;;9.25;;
19599;SDS011;9947;57.722;12.012;2022-07-21T11:47:03;15.40;;;10.05;;
19599;SDS011;9947;57.722;12.012;2022-07-21T11:49:31;15.48;;;9.55;;
19599;SDS011;9947;57.722;12.012;2022-07-21T11:52:03;12.40;;;9.30;;
19599;SDS011;9947;57.722;12.012;2022-07-21T11:54:32;11.23;;;8.70;;
19599;SDS011;9947;57.722;12.012;2022-07-21T11:57:03;14.68;;;9.68;;
19599;SDS011;9947;57.722;12.012;2022-07-21T11:59:32;14.48;;;8.88;;
19599;SDS011;9947;57.722;12.012;2022-07-21T12:02:03;18.67;;;9.75;;
19599;SDS011;9947;57.722;12.012;2022-07-21T12:04:45;13.52;;;8.48;;
19599;SDS011;9947;57.722;12.012;2022-07-21T12:07:29;13.23;;;9.40;;
19599;SDS011;9947;57.722;12.012;2022-07-21T12:10:02;16.40;;;9.15;;
19599;SDS011;9947;57.722;12.012;2022-07-21T12:18:47;17.20;;;9.48;;
19599;SDS011;9947;57.722;12.012;2022-07-21T12:21:17;14.35;;;9.30;;
19599;SDS011;9947;57.722;12.012;2022-07-21T12:23:44;13.50;;;9.48;;
19599;SDS011;9947;57.722;12.012;2022-07-21T12:26:19;13.00;;;9.30;;
19599;SDS011;9947;57.722;12.012;2022-07-21T12:28:48;15.27;;;9.52;;
19599;SDS011;9947;57.722;12.012;2022-07-21T12:31:19;11.05;;;9.48;;
19599;SDS011;9947;57.722;12.012;2022-07-21T12:33:50;12.82;;;9.40;;
19599;SDS011;9947;57.722;12.012;2022-07-21T12:36:20;10.98;;;9.05;;
19599;SDS011;9947;57.722;12.012;2022-07-21T12:38:49;11.90;;;9.40;;
19599;SDS011;9947;57.722;12.012;2022-07-21T12:41:17;15.35;;;9.93;;
19599;SDS011;9947;57.722;12.012;2022-07-21T12:43:52;15.15;;;9.20;;
19599;SDS011;9947;57.722;12.012;2022-07-21T12:46:20;10.57;;;8.43;;
19599;SDS011;9947;57.722;12.012;2022-07-21T12:48:50;12.77;;;9.98;;
19599;SDS011;9947;57.722;12.012;2022-07-21T12:51:24;18.67;;;9.77;;
19599;SDS011;9947;57.722;12.012;2022-07-21T12:53:51;12.95;;;9.50;;
19599;SDS011;9947;57.722;12.012;2022-07-21T12:56:20;17.85;;;10.75;;
19599;SDS011;9947;57.722;12.012;2022-07-21T12:58:53;11.18;;;9.65;;
19599;SDS011;9947;57.722;12.012;2022-07-21T13:01:22;16.25;;;9.88;;
19599;SDS011;9947;57.722;12.012;2022-07-21T13:03:52;14.43;;;10.15;;
19599;SDS011;9947;57.722;12.012;2022-07-21T13:06:23;17.75;;;10.35;;
19599;SDS011;9947;57.722;12.012;2022-07-21T13:08:52;15.68;;;10.95;;
19599;SDS011;9947;57.722;12.012;2022-07-21T13:11:19;13.40;;;10.32;;
19599;SDS011;9947;57.722;12.012;2022-07-21T13:13:49;14.43;;;10.40;;
19599;SDS011;9947;57.722;12.012;2022-07-21T13:16:17;15.75;;;10.32;;
19599;SDS011;9947;57.722;12.012;2022-07-21T13:18:46;11.75;;;9.85;;
19599;SDS011;9947;57.722;12.012;2022-07-21T13:21:14;12.65;;;9.82;;
19599;SDS011;9947;57.722;12.012;2022-07-21T13:23:43;12.80;;;10.32;;
19599;SDS011;9947;57.722;12.012;2022-07-21T13:26:10;14.82;;;10.48;;
19599;SDS011;9947;57.722;12.012;2022-07-21T13:28:37;15.38;;;9.75;;
19599;SDS011;9947;57.722;12.012;2022-07-21T13:31:05;15.63;;;10.43;;
19599;SDS011;9947;57.722;12.012;2022-07-21T13:33:33;12.82;;;10.45;;
19599;SDS011;9947;57.722;12.012;2022-07-21T13:36:01;14.23;;;10.48;;
19599;SDS011;9947;57.722;12.012;2022-07-21T13:38:29;18.73;;;10.57;;
19599;SDS011;9947;57.722;12.012;2022-07-21T13:40:56;16.05;;;10.25;;
19599;SDS011;9947;57.722;12.012;2022-07-21T13:43:23;15.65;;;11.05;;
19599;SDS011;9947;57.722;12.012;2022-07-21T13:45:50;13.13;;;10.38;;
19599;SDS011;9947;57.722;12.012;2022-07-21T13:48:17;15.75;;;10.48;;
19599;SDS011;9947;57.722;12.012;2022-07-21T13:50:44;17.17;;;10.13;;
19599;SDS011;9947;57.722;12.012;2022-07-21T13:53:20;13.95;;;10.38;;
19599;SDS011;9947;57.722;12.012;2022-07-21T13:56:01;17.23;;;10.93;;
19599;SDS011;9947;57.722;12.012;2022-07-21T13:58:33;16.77;;;11.63;;
19599;SDS011;9947;57.722;12.012;2022-07-21T14:01:00;20.35;;;11.82;;
19599;SDS011;9947;57.722;12.012;2022-07-21T14:03:27;20.85;;;12.10;;
19599;SDS011;9947;57.722;12.012;2022-07-21T14:05:59;16.83;;;11.70;;
19599;SDS011;9947;57.722;12.012;2022-07-21T14:08:26;16.00;;;12.18;;
19599;SDS011;9947;57.722;12.012;2022-07-21T14:10:55;17.77;;;11.65;;
19599;SDS011;9947;57.722;12.012;2022-07-21T14:13:25;19.23;;;12.32;;
19599;SDS011;9947;57.722;12.012;2022-07-21T14:15:56;20.23;;;12.23;;
19599;SDS011;9947;57.722;12.012;2022-07-21T14:18:35;16.98;;;12.35;;
19599;SDS011;9947;57.722;12.012;2022-07-21T14:21:05;19.42;;;11.95;;
19599;SDS011;9947;57.722;12.012;2022-07-21T14:23:32;19.23;;;12.27;;
19599;SDS011;9947;57.722;12.012;2022-07-21T14:26:00;14.98;;;11.73;;
19599;SDS011;9947;57.722;12.012;2022-07-21T14:28:28;14.45;;;10.93;;
19599;SDS011;9947;57.722;12.012;2022-07-21T14:30:55;18.67;;;12.30;;
19599;SDS011;9947;57.722;12.012;2022-07-21T14:33:22;19.35;;;12.15;;
19599;SDS011;9947;57.722;12.012;2022-07-21T14:35:49;18.35;;;11.55;;
19599;SDS011;9947;57.722;12.012;2022-07-21T14:38:16;20.10;;;11.85;;
19599;SDS011;9947;57.722;12.012;2022-07-21T14:40:45;18.17;;;12.25;;
19599;SDS011;9947;57.722;12.012;2022-07-21T14:43:13;18.30;;;11.98;;
19599;SDS011;9947;57.722;12.012;2022-07-21T14:45:40;20.50;;;11.85;;
19599;SDS011;9947;57.722;12.012;2022-07-21T14:48:07;19.63;;;12.70;;
19599;SDS011;9947;57.722;12.012;2022-07-21T14:50:34;23.92;;;15.18;;
19599;SDS011;9947;57.722;12.012;2022-07-21T14:53:02;21.48;;;14.40;;
19599;SDS011;9947;57.722;12.012;2022-07-21T14:55:31;20.80;;;13.90;;
19599;SDS011;9947;57.722;12.012;2022-07-21T14:57:58;21.23;;;13.82;;
19599;SDS011;9947;57.722;12.012;2022-07-21T15:00:26;23.17;;;14.27;;